Main page
METAR-TAF:

METAR-TAF

Airports :

Loei Airport

Loei, Thailand

latitude: 17-27N, longitude: 101-44E, elevation: 253 m

Current weather observation

The report was made 9 hours and 13 minutes ago, at 12:00 UTC
Wind 3 kt from the West, varying between Southwest and West/Northwest
Temperature 24°C
Humidity 65%
Pressure 1013 hPa
Visibility: 6000 m
Few clouds at a height of 3000 ft

METAR: VTUL 171200Z 26003KT 220V290 6000 FEW030 24/17 Q1013 NOSIG

Time: 04:13 (21:13 UTC)

Forecast

The report was made 4 hours and 13 minutes ago, at 17:00 UTC
Forecast valid from 17 at 18 UTC to 18 at 18 UTC
Wind 3 kt from the South/Southeast
Visibility: 6000 m
Becoming
from 17 at 21 UTC to 17 at 23 UTC
Visibility: 3000 m
mist
Becoming
from 18 at 02 UTC to 18 at 04 UTC
Visibility: 7000 m

TAF: VTUL 171700Z 1718/1818 16003KT 6000 NSC BECMG 1721/1723 3000 BR BECMG 1802/1804 7000 NSW

Weather observations and forecasts of more than 4000 airports (METAR and TAF reports).

The available stations are represented by yellow and red dots on the map.

Hover mouse over dot to see the name of the station.

Then click to see weather observations and forecasts.

To change the map : click on the green buttons with a black cross to zoom in, on the green button with a dash to zoom out, or on the green arrows for adjacent maps.


METAR-TAF: